sensor_id;sensor_type;location;lat;lon;timestamp;pressure;altitude;pressure_sealevel;temperature;humidity
26697;BME280;14312;52.614;13.496;2022-10-18T00:01:16;101756.38;;;21.37;55.82
26697;BME280;14312;52.614;13.496;2022-10-18T00:04:01;101754.22;;;21.34;55.94
26697;BME280;14312;52.614;13.496;2022-10-18T00:06:50;101762.63;;;21.33;55.95
26697;BME280;14312;52.614;13.496;2022-10-18T00:09:36;101760.78;;;21.28;55.95
26697;BME280;14312;52.614;13.496;2022-10-18T00:12:22;101764.59;;;21.27;56.12
26697;BME280;14312;52.614;13.496;2022-10-18T00:15:09;101770.59;;;21.24;56.39
26697;BME280;14312;52.614;13.496;2022-10-18T00:17:55;101771.94;;;21.22;56.25
26697;BME280;14312;52.614;13.496;2022-10-18T00:20:40;101773.31;;;21.19;56.15
26697;BME280;14312;52.614;13.496;2022-10-18T00:23:27;101773.31;;;21.19;56.50
26697;BME280;14312;52.614;13.496;2022-10-18T00:26:21;101768.47;;;21.16;56.42
26697;BME280;14312;52.614;13.496;2022-10-18T00:29:12;101773.91;;;21.16;57.06
26697;BME280;14312;52.614;13.496;2022-10-18T00:31:58;101787.16;;;21.13;56.50
26697;BME280;14312;52.614;13.496;2022-10-18T00:34:44;101782.03;;;21.11;56.66
26697;BME280;14312;52.614;13.496;2022-10-18T00:37:30;101789.63;;;21.09;56.69
26697;BME280;14312;52.614;13.496;2022-10-18T00:40:15;101791.81;;;21.07;56.95
26697;BME280;14312;52.614;13.496;2022-10-18T00:43:01;101786.41;;;21.07;57.03
26697;BME280;14312;52.614;13.496;2022-10-18T00:45:47;101791.81;;;21.07;56.99
26697;BME280;14312;52.614;13.496;2022-10-18T00:48:32;101791.81;;;21.07;57.03
26697;BME280;14312;52.614;13.496;2022-10-18T00:51:19;101784.78;;;21.06;57.28
26697;BME280;14312;52.614;13.496;2022-10-18T00:54:06;101791.28;;;21.05;57.21
26697;BME280;14312;52.614;13.496;2022-10-18T00:56:52;101792.38;;;21.04;57.26
26697;BME280;14312;52.614;13.496;2022-10-18T00:59:38;101795.38;;;21.02;57.15
26697;BME280;14312;52.614;13.496;2022-10-18T01:02:25;101795.13;;;20.99;57.10
26697;BME280;14312;52.614;13.496;2022-10-18T01:05:14;101789.69;;;20.99;57.13
26697;BME280;14312;52.614;13.496;2022-10-18T01:08:33;101795.69;;;20.96;57.96
26697;BME280;14312;52.614;13.496;2022-10-18T01:11:48;101801.13;;;20.96;58.08
26697;BME280;14312;52.614;13.496;2022-10-18T01:15:04;101804.38;;;20.93;57.94
26697;BME280;14312;52.614;13.496;2022-10-18T01:18:35;101808.22;;;20.87;58.19
26697;BME280;14312;52.614;13.496;2022-10-18T01:21:44;101808.75;;;20.84;58.49
26697;BME280;14312;52.614;13.496;2022-10-18T01:24:53;101800.66;;;20.79;58.47
26697;BME280;14312;52.614;13.496;2022-10-18T01:30:58;101795.25;;;20.79;58.20
26697;BME280;14312;52.614;13.496;2022-10-18T01:33:56;101802.28;;;20.80;58.59
26697;BME280;14312;52.614;13.496;2022-10-18T01:36:46;101795.25;;;20.79;57.99
26697;BME280;14312;52.614;13.496;2022-10-18T01:39:35;101784.94;;;20.76;58.39
26697;BME280;14312;52.614;13.496;2022-10-18T01:42:23;101776.31;;;20.74;58.24
26697;BME280;14312;52.614;13.496;2022-10-18T01:45:11;101776.31;;;20.74;58.23
26697;BME280;14312;52.614;13.496;2022-10-18T01:48:00;101788.25;;;20.73;58.40
26697;BME280;14312;52.614;13.496;2022-10-18T01:50:46;101789.59;;;20.70;58.42
26697;BME280;14312;52.614;13.496;2022-10-18T01:53:33;101796.91;;;20.69;58.33
26697;BME280;14312;52.614;13.496;2022-10-18T02:08:29;101796.41;;;20.62;59.11
26697;BME280;14312;52.614;13.496;2022-10-18T02:11:17;101795.34;;;20.58;58.75
26697;BME280;14312;52.614;13.496;2022-10-18T02:14:06;101793.72;;;20.57;59.35
26697;BME280;14312;52.614;13.496;2022-10-18T02:16:55;101793.19;;;20.55;59.14
26697;BME280;14312;52.614;13.496;2022-10-18T02:19:51;101785.88;;;20.56;59.91
26697;BME280;14312;52.614;13.496;2022-10-18T02:22:38;101794.28;;;20.54;59.28
26697;BME280;14312;52.614;13.496;2022-10-18T02:25:29;101785.06;;;20.55;59.63
26697;BME280;14312;52.614;13.496;2022-10-18T02:28:15;101770.19;;;20.53;59.42
26697;BME280;14312;52.614;13.496;2022-10-18T02:31:24;101771.25;;;20.57;60.55
26697;BME280;14312;52.614;13.496;2022-10-18T02:34:21;101785.59;;;20.57;60.40
26697;BME280;14312;52.614;13.496;2022-10-18T02:37:08;101786.69;;;20.56;59.58
26697;BME280;14312;52.614;13.496;2022-10-18T02:39:55;101781.81;;;20.58;59.71
26697;BME280;14312;52.614;13.496;2022-10-18T02:42:47;101787.75;;;20.60;60.11
26697;BME280;14312;52.614;13.496;2022-10-18T02:45:33;101794.28;;;20.59;59.46
26697;BME280;14312;52.614;13.496;2022-10-18T02:48:19;101787.22;;;20.58;59.71
26697;BME280;14312;52.614;13.496;2022-10-18T02:51:05;101811.59;;;20.58;59.64
26697;BME280;14312;52.614;13.496;2022-10-18T02:53:50;101814.84;;;20.55;59.60
26697;BME280;14312;52.614;13.496;2022-10-18T02:56:36;101806.72;;;20.55;59.55
26697;BME280;14312;52.614;13.496;2022-10-18T02:59:22;101802.69;;;20.53;59.69
26697;BME280;14312;52.614;13.496;2022-10-18T03:02:08;101802.44;;;20.49;59.66
26697;BME280;14312;52.614;13.496;2022-10-18T03:04:58;101813.25;;;20.49;59.89
26697;BME280;14312;52.614;13.496;2022-10-18T03:07:44;101820.03;;;20.47;59.97
26697;BME280;14312;52.614;13.496;2022-10-18T03:10:30;101815.47;;;20.42;60.08
26697;BME280;14312;52.614;13.496;2022-10-18T03:13:20;101809.22;;;20.42;59.99
26697;BME280;14312;52.614;13.496;2022-10-18T03:16:06;101816.53;;;20.41;60.23
26697;BME280;14312;52.614;13.496;2022-10-18T03:18:52;101817.63;;;20.40;60.24
26697;BME280;14312;52.614;13.496;2022-10-18T03:21:38;101824.13;;;20.39;60.34
26697;BME280;14312;52.614;13.496;2022-10-18T03:24:24;101842.00;;;20.40;60.62
26697;BME280;14312;52.614;13.496;2022-10-18T03:27:11;101836.56;;;20.40;60.55
26697;BME280;14312;52.614;13.496;2022-10-18T03:29:57;101832.78;;;20.41;60.82
26697;BME280;14312;52.614;13.496;2022-10-18T03:32:45;101839.28;;;20.40;60.87
26697;BME280;14312;52.614;13.496;2022-10-18T03:35:31;101838.19;;;20.41;60.99
26697;BME280;14312;52.614;13.496;2022-10-18T03:38:17;101843.63;;;20.41;60.74
26697;BME280;14312;52.614;13.496;2022-10-18T03:41:03;101842.00;;;20.40;60.93
26697;BME280;14312;52.614;13.496;2022-10-18T03:43:49;101836.56;;;20.40;61.11
26697;BME280;14312;52.614;13.496;2022-10-18T03:46:35;101836.56;;;20.40;60.87
26697;BME280;14312;52.614;13.496;2022-10-18T03:49:25;101834.94;;;20.39;60.80
26697;BME280;14312;52.614;13.496;2022-10-18T03:52:12;101824.13;;;20.39;61.13
26697;BME280;14312;52.614;13.496;2022-10-18T03:54:57;101826.03;;;20.39;61.21
26697;BME280;14312;52.614;13.496;2022-10-18T03:57:43;101829.53;;;20.39;61.16
26697;BME280;14312;52.614;13.496;2022-10-18T04:00:29;101834.94;;;20.39;61.29
26697;BME280;14312;52.614;13.496;2022-10-18T04:03:17;101840.38;;;20.39;61.35
26697;BME280;14312;52.614;13.496;2022-10-18T04:06:03;101834.94;;;20.39;61.50
26697;BME280;14312;52.614;13.496;2022-10-18T04:08:49;101835.75;;;20.40;61.63
26697;BME280;14312;52.614;13.496;2022-10-18T04:11:35;101830.91;;;20.37;61.29
26697;BME280;14312;52.614;13.496;2022-10-18T04:14:21;101833.91;;;20.35;61.60
26697;BME280;14312;52.614;13.496;2022-10-18T04:17:07;101833.91;;;20.35;61.62
26697;BME280;14312;52.614;13.496;2022-10-18T04:19:55;101841.47;;;20.33;61.74
26697;BME280;14312;52.614;13.496;2022-10-18T04:23:11;101835.50;;;20.31;61.60
26697;BME280;14312;52.614;13.496;2022-10-18T04:25:57;101833.06;;;20.29;61.54
26697;BME280;14312;52.614;13.496;2022-10-18T04:28:43;101844.16;;;20.28;61.79
26697;BME280;14312;52.614;13.496;2022-10-18T04:31:29;101837.13;;;20.27;61.84
26697;BME280;14312;52.614;13.496;2022-10-18T04:34:20;101835.00;;;20.24;61.71
26697;BME280;14312;52.614;13.496;2022-10-18T04:37:05;101839.88;;;20.22;61.90
26697;BME280;14312;52.614;13.496;2022-10-18T04:39:51;101842.03;;;20.20;61.64
26697;BME280;14312;52.614;13.496;2022-10-18T04:42:37;101844.19;;;20.18;61.97
26697;BME280;14312;52.614;13.496;2022-10-18T04:45:22;101835.53;;;20.16;62.05
26697;BME280;14312;52.614;13.496;2022-10-18T04:48:10;101839.34;;;20.15;61.77
26697;BME280;14312;52.614;13.496;2022-10-18T04:51:00;101828.22;;;20.11;61.75
26697;BME280;14312;52.614;13.496;2022-10-18T04:53:46;101825.00;;;20.09;61.98
26697;BME280;14312;52.614;13.496;2022-10-18T04:56:38;101827.16;;;20.07;62.08
26697;BME280;14312;52.614;13.496;2022-10-18T04:59:23;101823.09;;;20.05;62.13
26697;BME280;14312;52.614;13.496;2022-10-18T05:02:09;101825.28;;;20.03;62.15
26697;BME280;14312;52.614;13.496;2022-10-18T05:04:55;101827.47;;;20.01;62.19
26697;BME280;14312;52.614;13.496;2022-10-18T05:07:40;101831.25;;;20.00;62.20
26697;BME280;14312;52.614;13.496;2022-10-18T05:10:26;101823.66;;;19.97;62.13
26697;BME280;14312;52.614;13.496;2022-10-18T05:13:15;101823.97;;;19.95;62.23
26697;BME280;14312;52.614;13.496;2022-10-18T05:16:00;101830.44;;;19.94;62.12
26697;BME280;14312;52.614;13.496;2022-10-18T05:18:47;101829.09;;;19.91;62.24
26697;BME280;14312;52.614;13.496;2022-10-18T05:21:32;101824.75;;;19.90;62.37
26697;BME280;14312;52.614;13.496;2022-10-18T05:24:18;101833.94;;;19.89;62.17
26697;BME280;14312;52.614;13.496;2022-10-18T05:27:04;101824.25;;;19.88;62.47
26697;BME280;14312;52.614;13.496;2022-10-18T05:29:49;101801.50;;;19.84;62.29
26697;BME280;14312;52.614;13.496;2022-10-18T05:32:35;101796.09;;;19.84;62.17
26697;BME280;14312;52.614;13.496;2022-10-18T05:35:21;101809.88;;;19.83;61.91
26697;BME280;14312;52.614;13.496;2022-10-18T05:38:06;101816.66;;;19.80;62.21
26697;BME280;14312;52.614;13.496;2022-10-18T05:40:52;101800.97;;;19.77;62.18
26697;BME280;14312;52.614;13.496;2022-10-18T05:43:38;101806.13;;;19.74;62.33
26697;BME280;14312;52.614;13.496;2022-10-18T05:46:24;101816.66;;;19.70;62.27
26697;BME280;14312;52.614;13.496;2022-10-18T05:49:11;101821.81;;;19.67;62.25
26697;BME280;14312;52.614;13.496;2022-10-18T05:51:57;101819.91;;;19.62;62.39
26697;BME280;14312;52.614;13.496;2022-10-18T05:54:43;101828.03;;;19.57;62.30
26697;BME280;14312;52.614;13.496;2022-10-18T05:57:28;101829.66;;;19.53;62.20
26697;BME280;14312;52.614;13.496;2022-10-18T06:00:19;101834.78;;;19.49;62.38
26697;BME280;14312;52.614;13.496;2022-10-18T06:03:10;101831.81;;;19.46;62.55
26697;BME280;14312;52.614;13.496;2022-10-18T06:06:01;101820.69;;;19.42;63.29
26697;BME280;14312;52.614;13.496;2022-10-18T06:08:48;101842.31;;;19.42;62.93
26697;BME280;14312;52.614;13.496;2022-10-18T06:11:38;101825.84;;;19.39;62.98
26697;BME280;14312;52.614;13.496;2022-10-18T06:14:24;101832.31;;;19.38;62.72
26697;BME280;14312;52.614;13.496;2022-10-18T06:17:10;101818.25;;;19.36;62.78
26697;BME280;14312;52.614;13.496;2022-10-18T06:19:56;101826.38;;;19.36;63.18
26697;BME280;14312;52.614;13.496;2022-10-18T06:22:41;101817.19;;;19.37;63.01
26697;BME280;14312;52.614;13.496;2022-10-18T06:25:27;101822.59;;;19.37;63.23
26697;BME280;14312;52.614;13.496;2022-10-18T06:28:13;101818.81;;;19.38;62.99
26697;BME280;14312;52.614;13.496;2022-10-18T06:30:59;101813.41;;;19.38;63.44
26697;BME280;14312;52.614;13.496;2022-10-18T06:33:44;101811.22;;;19.40;63.53
26697;BME280;14312;52.614;13.496;2022-10-18T06:36:30;101814.47;;;19.42;63.17
26697;BME280;14312;52.614;13.496;2022-10-18T06:39:16;101816.09;;;19.43;63.33
26697;BME280;14312;52.614;13.496;2022-10-18T06:42:02;101815.03;;;19.44;63.37
26697;BME280;14312;52.614;13.496;2022-10-18T06:44:51;101801.50;;;19.44;63.31
26697;BME280;14312;52.614;13.496;2022-10-18T06:47:36;101796.09;;;19.44;63.33
26697;BME280;14312;52.614;13.496;2022-10-18T06:50:25;101809.34;;;19.45;63.12
26697;BME280;14312;52.614;13.496;2022-10-18T06:53:10;101804.75;;;19.46;63.30
26697;BME280;14312;52.614;13.496;2022-10-18T06:56:05;101803.13;;;19.45;63.77
26697;BME280;14312;52.614;13.496;2022-10-18T06:58:51;101802.59;;;19.43;62.86
26697;BME280;14312;52.614;13.496;2022-10-18T07:01:36;101809.88;;;19.42;63.22
26697;BME280;14312;52.614;13.496;2022-10-18T07:04:28;101814.22;;;19.38;63.00
26697;BME280;14312;52.614;13.496;2022-10-18T07:07:14;101815.56;;;19.36;63.24
26697;BME280;14312;52.614;13.496;2022-10-18T07:10:00;101831.22;;;19.34;63.78
26697;BME280;14312;52.614;13.496;2022-10-18T07:12:46;101839.34;;;19.29;63.79
26697;BME280;14312;52.614;13.496;2022-10-18T07:15:31;101835.56;;;19.25;63.80
26697;BME280;14312;52.614;13.496;2022-10-18T07:18:19;101850.66;;;19.21;63.91
26697;BME280;14312;52.614;13.496;2022-10-18T07:21:11;101842.56;;;19.15;64.02
26697;BME280;14312;52.614;13.496;2022-10-18T07:24:00;101855.25;;;19.15;64.09
26697;BME280;14312;52.614;13.496;2022-10-18T07:26:46;101869.84;;;19.14;64.17
26697;BME280;14312;52.614;13.496;2022-10-18T07:29:33;101880.41;;;19.15;64.25
26697;BME280;14312;52.614;13.496;2022-10-18T07:32:18;101879.59;;;19.15;64.46
26697;BME280;14312;52.614;13.496;2022-10-18T07:35:04;101885.25;;;19.18;64.56
26697;BME280;14312;52.614;13.496;2022-10-18T07:37:50;101888.50;;;19.21;64.46
26697;BME280;14312;52.614;13.496;2022-10-18T07:40:36;101897.16;;;19.23;64.63
26697;BME280;14312;52.614;13.496;2022-10-18T07:43:22;101899.31;;;19.26;64.74
26697;BME280;14312;52.614;13.496;2022-10-18T07:46:08;101908.81;;;19.28;64.42
26697;BME280;14312;52.614;13.496;2022-10-18T07:48:54;101908.53;;;19.30;64.40
26697;BME280;14312;52.614;13.496;2022-10-18T07:51:40;101906.41;;;19.32;64.73
26697;BME280;14312;52.614;13.496;2022-10-18T07:54:25;101902.59;;;19.33;64.52
26697;BME280;14312;52.614;13.496;2022-10-18T07:57:11;101900.44;;;19.35;64.57
26697;BME280;14312;52.614;13.496;2022-10-18T07:59:57;101895.59;;;19.37;64.64
26697;BME280;14312;52.614;13.496;2022-10-18T08:02:42;101900.16;;;19.41;64.87
26697;BME280;14312;52.614;13.496;2022-10-18T08:05:28;101896.13;;;19.44;64.95
26697;BME280;14312;52.614;13.496;2022-10-18T08:08:14;101885.88;;;19.46;64.51
26697;BME280;14312;52.614;13.496;2022-10-18T08:11:08;101886.97;;;19.50;65.03
26697;BME280;14312;52.614;13.496;2022-10-18T08:13:55;101879.94;;;19.49;64.63
26697;BME280;14312;52.614;13.496;2022-10-18T08:16:41;101886.16;;;19.49;64.42
26697;BME280;14312;52.614;13.496;2022-10-18T08:19:27;101881.56;;;19.50;64.59
26697;BME280;14312;52.614;13.496;2022-10-18T08:22:13;101868.59;;;19.52;64.55
26697;BME280;14312;52.614;13.496;2022-10-18T08:25:03;101866.97;;;19.51;64.59
26697;BME280;14312;52.614;13.496;2022-10-18T08:27:48;101866.72;;;19.52;64.44
26697;BME280;14312;52.614;13.496;2022-10-18T08:30:34;101864.81;;;19.53;64.48
26697;BME280;14312;52.614;13.496;2022-10-18T08:33:21;101864.81;;;19.53;64.51
26697;BME280;14312;52.614;13.496;2022-10-18T08:36:10;101870.22;;;19.53;64.66
26697;BME280;14312;52.614;13.496;2022-10-18T08:38:56;101875.09;;;19.51;64.42
26697;BME280;14312;52.614;13.496;2022-10-18T08:44:55;101871.28;;;19.47;64.52
26697;BME280;14312;52.614;13.496;2022-10-18T08:47:42;101869.66;;;19.46;64.48
26697;BME280;14312;52.614;13.496;2022-10-18T08:50:33;101867.22;;;19.44;65.06
26697;BME280;14312;52.614;13.496;2022-10-18T08:53:26;101870.19;;;19.43;64.84
26697;BME280;14312;52.614;13.496;2022-10-18T08:56:14;101872.31;;;19.41;64.64
26697;BME280;14312;52.614;13.496;2022-10-18T08:59:02;101883.13;;;19.41;64.71
26697;BME280;14312;52.614;13.496;2022-10-18T09:08:10;101885.31;;;19.39;65.66
26697;BME280;14312;52.614;13.496;2022-10-18T09:11:09;101883.44;;;19.39;65.61
26697;BME280;14312;52.614;13.496;2022-10-18T09:20:25;101872.88;;;19.38;65.46
26697;BME280;14312;52.614;13.496;2022-10-18T09:23:20;101878.81;;;19.35;65.44
26697;BME280;14312;52.614;13.496;2022-10-18T09:29:26;101885.59;;;19.32;65.80
26697;BME280;14312;52.614;13.496;2022-10-18T09:32:24;101878.25;;;19.28;65.58
26697;BME280;14312;52.614;13.496;2022-10-18T09:35:21;101885.81;;;19.26;65.68
26697;BME280;14312;52.614;13.496;2022-10-18T09:38:10;101886.34;;;19.23;65.15
26697;BME280;14312;52.614;13.496;2022-10-18T09:41:01;101884.19;;;19.20;65.60
26697;BME280;14312;52.614;13.496;2022-10-18T09:44:06;101880.13;;;19.17;65.56
26697;BME280;14312;52.614;13.496;2022-10-18T09:47:00;101876.06;;;19.14;65.96
26697;BME280;14312;52.614;13.496;2022-10-18T09:56:30;101872.28;;;19.10;65.91
26697;BME280;14312;52.614;13.496;2022-10-18T10:02:18;101873.88;;;19.11;65.90
26697;BME280;14312;52.614;13.496;2022-10-18T10:05:05;101877.41;;;19.12;66.04
26697;BME280;14312;52.614;13.496;2022-10-18T10:07:58;101873.38;;;19.14;66.65
26697;BME280;14312;52.614;13.496;2022-10-18T10:10:45;101884.16;;;19.14;66.46
26697;BME280;14312;52.614;13.496;2022-10-18T10:13:32;101880.09;;;19.12;66.46
26697;BME280;14312;52.614;13.496;2022-10-18T10:16:17;101877.97;;;19.14;66.53
26697;BME280;14312;52.614;13.496;2022-10-18T10:19:03;101882.53;;;19.13;66.54
26697;BME280;14312;52.614;13.496;2022-10-18T10:21:50;101880.91;;;19.12;66.75
26697;BME280;14312;52.614;13.496;2022-10-18T10:24:50;101877.13;;;19.13;67.55
26697;BME280;14312;52.614;13.496;2022-10-18T10:27:43;101873.88;;;19.11;67.55
26697;BME280;14312;52.614;13.496;2022-10-18T10:30:33;101873.63;;;19.13;67.47
26697;BME280;14312;52.614;13.496;2022-10-18T10:33:33;101868.78;;;19.15;67.58
26697;BME280;14312;52.614;13.496;2022-10-18T10:36:20;101872.56;;;19.14;67.55
26697;BME280;14312;52.614;13.496;2022-10-18T10:39:14;101867.97;;;19.14;67.94
26697;BME280;14312;52.614;13.496;2022-10-18T10:42:03;101856.59;;;19.12;67.85
26697;BME280;14312;52.614;13.496;2022-10-18T10:44:53;101866.34;;;19.13;68.08
26697;BME280;14312;52.614;13.496;2022-10-18T10:47:44;101862.00;;;19.12;67.85
26697;BME280;14312;52.614;13.496;2022-10-18T10:50:30;101859.28;;;19.12;67.77
26697;BME280;14312;52.614;13.496;2022-10-18T10:53:40;101850.13;;;19.13;68.08
26697;BME280;14312;52.614;13.496;2022-10-18T10:56:29;101845.78;;;19.12;68.13
26697;BME280;14312;52.614;13.496;2022-10-18T10:59:17;101835.28;;;19.16;68.30
26697;BME280;14312;52.614;13.496;2022-10-18T11:05:22;101836.59;;;19.18;68.67
26697;BME280;14312;52.614;13.496;2022-10-18T11:08:10;101849.34;;;19.18;68.49
26697;BME280;14312;52.614;13.496;2022-10-18T11:14:20;101841.22;;;19.18;68.64
26697;BME280;14312;52.614;13.496;2022-10-18T11:17:36;101839.88;;;19.21;68.51
26697;BME280;14312;52.614;13.496;2022-10-18T11:20:34;101835.53;;;19.20;68.57
26697;BME280;14312;52.614;13.496;2022-10-18T11:23:26;101842.81;;;19.19;68.39
26697;BME280;14312;52.614;13.496;2022-10-18T11:38:09;101834.97;;;19.12;68.35
26697;BME280;14312;52.614;13.496;2022-10-18T11:41:13;101842.28;;;19.12;68.36
26697;BME280;14312;52.614;13.496;2022-10-18T11:44:22;101834.47;;;19.10;68.46
26697;BME280;14312;52.614;13.496;2022-10-18T11:47:20;101814.72;;;19.10;68.40
26697;BME280;14312;52.614;13.496;2022-10-18T11:50:37;101813.66;;;19.11;68.46
26697;BME280;14312;52.614;13.496;2022-10-18T11:56:49;101803.09;;;19.14;68.64
26697;BME280;14312;52.614;13.496;2022-10-18T12:03:01;101811.75;;;19.16;68.46
26697;BME280;14312;52.614;13.496;2022-10-18T12:05:49;101803.41;;;19.18;69.02
26697;BME280;14312;52.614;13.496;2022-10-18T12:08:41;101811.75;;;19.22;69.06
26697;BME280;14312;52.614;13.496;2022-10-18T12:11:37;101804.72;;;19.26;68.83
26697;BME280;14312;52.614;13.496;2022-10-18T12:14:28;101806.91;;;19.29;68.78
26697;BME280;14312;52.614;13.496;2022-10-18T12:20:25;101800.69;;;19.33;68.46
26697;BME280;14312;52.614;13.496;2022-10-18T12:23:15;101803.13;;;19.35;68.41
26697;BME280;14312;52.614;13.496;2022-10-18T12:26:05;101800.97;;;19.37;68.26
26697;BME280;14312;52.614;13.496;2022-10-18T12:29:09;101802.59;;;19.38;68.28
26697;BME280;14312;52.614;13.496;2022-10-18T12:32:01;101800.97;;;19.37;68.19
26697;BME280;14312;52.614;13.496;2022-10-18T12:34:57;101791.22;;;19.36;68.14
26697;BME280;14312;52.614;13.496;2022-10-18T12:38:22;101787.72;;;19.35;68.30
26697;BME280;14312;52.614;13.496;2022-10-18T12:41:21;101784.47;;;19.33;68.28
26697;BME280;14312;52.614;13.496;2022-10-18T12:44:23;101782.56;;;19.34;68.37
26697;BME280;14312;52.614;13.496;2022-10-18T12:47:20;101780.16;;;19.32;68.39
26697;BME280;14312;52.614;13.496;2022-10-18T12:50:27;101783.66;;;19.33;68.37
26697;BME280;14312;52.614;13.496;2022-10-18T12:53:32;101786.91;;;19.35;68.14
26697;BME280;14312;52.614;13.496;2022-10-18T13:02:14;101780.69;;;19.34;68.16
26697;BME280;14312;52.614;13.496;2022-10-18T13:11:30;101789.06;;;19.38;68.55
26697;BME280;14312;52.614;13.496;2022-10-18T13:17:30;101789.06;;;19.43;68.80
26697;BME280;14312;52.614;13.496;2022-10-18T13:20:37;101779.34;;;19.47;68.65
26697;BME280;14312;52.614;13.496;2022-10-18T13:23:39;101784.78;;;19.52;68.42
26697;BME280;14312;52.614;13.496;2022-10-18T13:26:36;101784.75;;;19.57;68.07
26697;BME280;14312;52.614;13.496;2022-10-18T13:29:41;101790.72;;;19.64;68.42
26697;BME280;14312;52.614;13.496;2022-10-18T13:35:58;101792.31;;;19.75;67.84
26697;BME280;14312;52.614;13.496;2022-10-18T13:44:32;101790.66;;;19.94;68.09
26697;BME280;14312;52.614;13.496;2022-10-18T13:47:33;101781.44;;;20.01;68.18
26697;BME280;14312;52.614;13.496;2022-10-18T13:50:35;101785.19;;;20.15;68.39
26697;BME280;14312;52.614;13.496;2022-10-18T13:53:58;101776.97;;;20.50;69.03
26697;BME280;14312;52.614;13.496;2022-10-18T14:03:48;101789.06;;;21.80;66.14
26697;BME280;14312;52.614;13.496;2022-10-18T14:06:35;101786.75;;;21.92;64.57
26697;BME280;14312;52.614;13.496;2022-10-18T14:09:30;101795.53;;;21.84;63.36
26697;BME280;14312;52.614;13.496;2022-10-18T14:12:29;101801.16;;;21.64;63.22
26697;BME280;14312;52.614;13.496;2022-10-18T14:15:23;101807.31;;;21.40;63.27
26697;BME280;14312;52.614;13.496;2022-10-18T14:18:15;101814.53;;;21.21;63.53
26697;BME280;14312;52.614;13.496;2022-10-18T14:21:06;101812.94;;;21.10;64.37
26697;BME280;14312;52.614;13.496;2022-10-18T14:23:55;101817.28;;;21.16;65.33
26697;BME280;14312;52.614;13.496;2022-10-18T14:26:41;101804.31;;;21.42;66.37
26697;BME280;14312;52.614;13.496;2022-10-18T14:29:31;101811.81;;;21.84;65.79
26697;BME280;14312;52.614;13.496;2022-10-18T14:32:27;101814.59;;;22.32;64.55
26697;BME280;14312;52.614;13.496;2022-10-18T14:35:20;101813.47;;;22.80;64.26
26697;BME280;14312;52.614;13.496;2022-10-18T14:38:12;101809.63;;;23.19;62.30
26697;BME280;14312;52.614;13.496;2022-10-18T14:47:08;101811.31;;;23.33;59.99
26697;BME280;14312;52.614;13.496;2022-10-18T14:49:56;101814.78;;;23.20;59.98
26697;BME280;14312;52.614;13.496;2022-10-18T14:52:42;101809.38;;;23.01;59.85
26697;BME280;14312;52.614;13.496;2022-10-18T14:55:28;101815.59;;;22.83;60.40
26697;BME280;14312;52.614;13.496;2022-10-18T14:58:17;101799.44;;;22.73;61.06
26697;BME280;14312;52.614;13.496;2022-10-18T15:01:03;101807.59;;;22.73;61.10
26697;BME280;14312;52.614;13.496;2022-10-18T15:03:54;101813.03;;;22.73;60.30
26697;BME280;14312;52.614;13.496;2022-10-18T15:06:41;101809.84;;;22.66;60.25
26697;BME280;14312;52.614;13.496;2022-10-18T15:09:28;101809.44;;;22.54;60.16
26697;BME280;14312;52.614;13.496;2022-10-18T15:12:16;101805.22;;;22.43;60.24
26697;BME280;14312;52.614;13.496;2022-10-18T15:15:02;101807.22;;;22.37;60.48
26697;BME280;14312;52.614;13.496;2022-10-18T15:17:48;101810.78;;;22.33;60.16
26697;BME280;14312;52.614;13.496;2022-10-18T15:20:36;101803.56;;;22.23;60.13
26697;BME280;14312;52.614;13.496;2022-10-18T15:23:27;101807.25;;;22.08;59.83
26697;BME280;14312;52.614;13.496;2022-10-18T15:26:25;101806.06;;;21.91;59.75
26697;BME280;14312;52.614;13.496;2022-10-18T15:29:18;101809.72;;;21.76;60.02
26697;BME280;14312;52.614;13.496;2022-10-18T15:32:31;101815.25;;;21.66;59.93
26697;BME280;14312;52.614;13.496;2022-10-18T15:35:21;101809.34;;;21.59;60.34
26697;BME280;14312;52.614;13.496;2022-10-18T15:38:24;101815.91;;;21.53;59.75
26697;BME280;14312;52.614;13.496;2022-10-18T15:50:00;101811.50;;;20.79;59.49
26697;BME280;14312;52.614;13.496;2022-10-18T15:52:46;101815.94;;;20.54;59.83
26697;BME280;14312;52.614;13.496;2022-10-18T16:01:16;101814.47;;;19.82;60.76
26697;BME280;14312;52.614;13.496;2022-10-18T16:04:25;101815.06;;;19.59;60.77
26697;BME280;14312;52.614;13.496;2022-10-18T16:07:11;101815.03;;;19.39;61.11
26697;BME280;14312;52.614;13.496;2022-10-18T16:09:57;101812.28;;;19.18;61.40
26697;BME280;14312;52.614;13.496;2022-10-18T16:12:43;101821.19;;;19.04;61.67
26697;BME280;14312;52.614;13.496;2022-10-18T16:15:31;101818.72;;;18.87;62.22
26697;BME280;14312;52.614;13.496;2022-10-18T16:18:18;101824.63;;;18.74;62.13
26697;BME280;14312;52.614;13.496;2022-10-18T16:21:19;101834.81;;;18.62;62.56
26697;BME280;14312;52.614;13.496;2022-10-18T16:24:05;101832.56;;;18.49;62.60
26697;BME280;14312;52.614;13.496;2022-10-18T16:26:51;101839.00;;;18.37;62.79
26697;BME280;14312;52.614;13.496;2022-10-18T16:29:37;101831.91;;;18.26;63.10
26697;BME280;14312;52.614;13.496;2022-10-18T16:32:23;101838.66;;;18.19;63.20
26697;BME280;14312;52.614;13.496;2022-10-18T16:35:09;101837.25;;;18.11;63.56
26697;BME280;14312;52.614;13.496;2022-10-18T16:37:58;101840.44;;;18.03;63.23
26697;BME280;14312;52.614;13.496;2022-10-18T16:40:44;101845.25;;;17.96;63.62
26697;BME280;14312;52.614;13.496;2022-10-18T16:43:30;101845.72;;;17.88;63.75